sensor_id;sensor_type;location;lat;lon;timestamp;pressure;altitude;pressure_sealevel;temperature
71630;BMP280;59479;51.902;8.212;2023-03-23T00:01:45;99865.72;;;13.45
71630;BMP280;59479;51.902;8.212;2023-03-23T00:04:10;99873.25;;;13.47
71630;BMP280;59479;51.902;8.212;2023-03-23T00:06:37;99865.69;;;13.47
71630;BMP280;59479;51.902;8.212;2023-03-23T00:09:03;99860.72;;;13.43
71630;BMP280;59479;51.902;8.212;2023-03-23T00:11:30;99868.22;;;13.45
71630;BMP280;59479;51.902;8.212;2023-03-23T00:13:57;99864.88;;;13.45
71630;BMP280;59479;51.902;8.212;2023-03-23T00:16:26;99870.97;;;13.37
71630;BMP280;59479;51.902;8.212;2023-03-23T00:21:28;99866.00;;;13.34
71630;BMP280;59479;51.902;8.212;2023-03-23T00:24:14;99842.63;;;13.26
71630;BMP280;59479;51.902;8.212;2023-03-23T00:26:45;99856.03;;;13.28
71630;BMP280;59479;51.902;8.212;2023-03-23T00:29:22;99839.13;;;13.31
71630;BMP280;59479;51.902;8.212;2023-03-23T00:31:48;99850.06;;;13.32
71630;BMP280;59479;51.902;8.212;2023-03-23T00:34:15;99846.78;;;13.28
71630;BMP280;59479;51.902;8.212;2023-03-23T00:36:48;99841.53;;;13.36
71630;BMP280;59479;51.902;8.212;2023-03-23T00:39:14;99838.16;;;13.37
71630;BMP280;59479;51.902;8.212;2023-03-23T00:41:45;99836.72;;;13.27
71630;BMP280;59479;51.902;8.212;2023-03-23T00:44:11;99830.81;;;13.26
71630;BMP280;59479;51.902;8.212;2023-03-23T00:46:42;99821.41;;;13.33
71630;BMP280;59479;51.902;8.212;2023-03-23T00:49:13;99834.06;;;13.31
71630;BMP280;59479;51.902;8.212;2023-03-23T00:51:41;99825.78;;;13.26
71630;BMP280;59479;51.902;8.212;2023-03-23T00:54:06;99826.63;;;13.27
71630;BMP280;59479;51.902;8.212;2023-03-23T00:56:32;99823.94;;;13.33
71630;BMP280;59479;51.902;8.212;2023-03-23T00:58:57;99814.78;;;13.29
71630;BMP280;59479;51.902;8.212;2023-03-23T01:01:23;99829.22;;;13.24
71630;BMP280;59479;51.902;8.212;2023-03-23T01:03:48;99816.50;;;13.28
71630;BMP280;59479;51.902;8.212;2023-03-23T01:06:15;99808.09;;;13.28
71630;BMP280;59479;51.902;8.212;2023-03-23T01:08:41;99802.25;;;13.26
71630;BMP280;59479;51.902;8.212;2023-03-23T01:11:12;99805.84;;;13.16
71630;BMP280;59479;51.902;8.212;2023-03-23T01:13:38;99803.06;;;13.26
71630;BMP280;59479;51.902;8.212;2023-03-23T01:16:05;99799.28;;;13.09
71630;BMP280;59479;51.902;8.212;2023-03-23T01:18:30;99804.09;;;13.19
71630;BMP280;59479;51.902;8.212;2023-03-23T01:20:55;99805.56;;;13.28
71630;BMP280;59479;51.902;8.212;2023-03-23T01:23:20;99793.16;;;13.19
71630;BMP280;59479;51.902;8.212;2023-03-23T01:25:46;99797.50;;;13.14
71630;BMP280;59479;51.902;8.212;2023-03-23T01:28:11;99803.19;;;13.22
71630;BMP280;59479;51.902;8.212;2023-03-23T01:30:37;99797.06;;;13.32
71630;BMP280;59479;51.902;8.212;2023-03-23T01:33:02;99797.16;;;13.27
71630;BMP280;59479;51.902;8.212;2023-03-23T01:35:28;99801.47;;;13.24
71630;BMP280;59479;51.902;8.212;2023-03-23T01:37:53;99797.13;;;13.29
71630;BMP280;59479;51.902;8.212;2023-03-23T01:40:19;99795.00;;;13.12
71630;BMP280;59479;51.902;8.212;2023-03-23T01:42:44;99801.47;;;13.24
71630;BMP280;59479;51.902;8.212;2023-03-23T01:47:46;99790.72;;;13.16
71630;BMP280;59479;51.902;8.212;2023-03-23T01:50:15;99797.34;;;13.20
71630;BMP280;59479;51.902;8.212;2023-03-23T01:52:40;99799.06;;;13.18
71630;BMP280;59479;51.902;8.212;2023-03-23T01:55:06;99791.41;;;13.22
71630;BMP280;59479;51.902;8.212;2023-03-23T01:57:32;99781.31;;;13.22
71630;BMP280;59479;51.902;8.212;2023-03-23T02:00:03;99785.53;;;13.22
71630;BMP280;59479;51.902;8.212;2023-03-23T02:02:41;99786.44;;;13.18
71630;BMP280;59479;51.902;8.212;2023-03-23T02:05:11;99784.84;;;13.15
71630;BMP280;59479;51.902;8.212;2023-03-23T02:07:37;99779.66;;;13.20
71630;BMP280;59479;51.902;8.212;2023-03-23T02:10:03;99785.72;;;13.13
71630;BMP280;59479;51.902;8.212;2023-03-23T02:12:29;99784.72;;;13.20
71630;BMP280;59479;51.902;8.212;2023-03-23T02:14:54;99792.28;;;13.20
71630;BMP280;59479;51.902;8.212;2023-03-23T02:17:32;99788.81;;;13.25
71630;BMP280;59479;51.902;8.212;2023-03-23T02:20:38;99792.28;;;13.20
71630;BMP280;59479;51.902;8.212;2023-03-23T02:23:27;99797.34;;;13.20
71630;BMP280;59479;51.902;8.212;2023-03-23T02:25:59;99788.59;;;13.34
71630;BMP280;59479;51.902;8.212;2023-03-23T02:31:37;99763.13;;;13.10
71630;BMP280;59479;51.902;8.212;2023-03-23T02:34:18;99734.84;;;12.96
71630;BMP280;59479;51.902;8.212;2023-03-23T02:37:01;99736.69;;;12.90
71630;BMP280;59479;51.902;8.212;2023-03-23T02:39:37;99734.75;;;13.01
71630;BMP280;59479;51.902;8.212;2023-03-23T02:42:07;99752.38;;;13.02
71630;BMP280;59479;51.902;8.212;2023-03-23T02:44:34;99732.28;;;12.99
71630;BMP280;59479;51.902;8.212;2023-03-23T02:47:04;99739.81;;;13.01
71630;BMP280;59479;51.902;8.212;2023-03-23T02:49:32;99739.91;;;12.96
71630;BMP280;59479;51.902;8.212;2023-03-23T02:52:02;99732.19;;;13.02
71630;BMP280;59479;51.902;8.212;2023-03-23T02:54:29;99737.50;;;12.92
71630;BMP280;59479;51.902;8.212;2023-03-23T02:56:55;99740.53;;;13.05
71630;BMP280;59479;51.902;8.212;2023-03-23T02:59:22;99720.25;;;13.10
71630;BMP280;59479;51.902;8.212;2023-03-23T03:01:55;99730.34;;;13.10
71630;BMP280;59479;51.902;8.212;2023-03-23T03:04:22;99742.16;;;13.06
71630;BMP280;59479;51.902;8.212;2023-03-23T03:07:02;99723.63;;;13.09
71630;BMP280;59479;51.902;8.212;2023-03-23T03:12:20;99733.81;;;13.04
71630;BMP280;59479;51.902;8.212;2023-03-23T03:14:59;99722.81;;;13.08
71630;BMP280;59479;51.902;8.212;2023-03-23T03:17:29;99733.09;;;13.00
71630;BMP280;59479;51.902;8.212;2023-03-23T03:19:58;99721.97;;;13.06
71630;BMP280;59479;51.902;8.212;2023-03-23T03:22:27;99705.31;;;13.01
71630;BMP280;59479;51.902;8.212;2023-03-23T03:24:56;99713.78;;;12.99
71630;BMP280;59479;51.902;8.212;2023-03-23T03:27:23;99711.97;;;13.05
71630;BMP280;59479;51.902;8.212;2023-03-23T03:29:53;99696.66;;;13.11
71630;BMP280;59479;51.902;8.212;2023-03-23T03:32:23;99700.13;;;13.07
71630;BMP280;59479;51.902;8.212;2023-03-23T03:34:49;99681.53;;;13.11
71630;BMP280;59479;51.902;8.212;2023-03-23T03:37:16;99671.59;;;13.05
71630;BMP280;59479;51.902;8.212;2023-03-23T03:39:42;99657.25;;;13.07
71630;BMP280;59479;51.902;8.212;2023-03-23T03:42:07;99660.63;;;13.06
71630;BMP280;59479;51.902;8.212;2023-03-23T03:44:33;99672.53;;;13.01
71630;BMP280;59479;51.902;8.212;2023-03-23T03:46:59;99676.16;;;12.90
71630;BMP280;59479;51.902;8.212;2023-03-23T03:49:24;99681.00;;;12.99
71630;BMP280;59479;51.902;8.212;2023-03-23T03:51:50;99688.44;;;13.03
71630;BMP280;59479;51.902;8.212;2023-03-23T03:54:16;99690.09;;;13.04
71630;BMP280;59479;51.902;8.212;2023-03-23T03:56:41;99698.44;;;13.07
71630;BMP280;59479;51.902;8.212;2023-03-23T03:59:09;99692.72;;;13.00
71630;BMP280;59479;51.902;8.212;2023-03-23T04:01:36;99694.44;;;12.99
71630;BMP280;59479;51.902;8.212;2023-03-23T04:04:02;99702.03;;;12.98
71630;BMP280;59479;51.902;8.212;2023-03-23T04:06:28;99701.78;;;13.08
71630;BMP280;59479;51.902;8.212;2023-03-23T04:08:55;99698.47;;;13.06
71630;BMP280;59479;51.902;8.212;2023-03-23T04:11:20;99694.38;;;13.02
71630;BMP280;59479;51.902;8.212;2023-03-23T04:13:46;99700.97;;;13.06
71630;BMP280;59479;51.902;8.212;2023-03-23T04:16:11;99693.47;;;13.03
71630;BMP280;59479;51.902;8.212;2023-03-23T04:18:36;99693.59;;;13.00
71630;BMP280;59479;51.902;8.212;2023-03-23T04:21:02;99690.34;;;12.95
71630;BMP280;59479;51.902;8.212;2023-03-23T04:23:29;99699.25;;;13.08
71630;BMP280;59479;51.902;8.212;2023-03-23T04:25:56;99706.91;;;13.05
71630;BMP280;59479;51.902;8.212;2023-03-23T04:28:24;99704.53;;;12.99
71630;BMP280;59479;51.902;8.212;2023-03-23T04:30:51;99706.06;;;13.04
71630;BMP280;59479;51.902;8.212;2023-03-23T04:33:21;99703.84;;;12.93
71630;BMP280;59479;51.902;8.212;2023-03-23T04:35:46;99704.66;;;12.93
71630;BMP280;59479;51.902;8.212;2023-03-23T04:38:15;99700.28;;;13.01
71630;BMP280;59479;51.902;8.212;2023-03-23T04:40:41;99708.22;;;12.85
71630;BMP280;59479;51.902;8.212;2023-03-23T04:43:07;99708.09;;;12.91
71630;BMP280;59479;51.902;8.212;2023-03-23T04:45:34;99716.41;;;12.94
71630;BMP280;59479;51.902;8.212;2023-03-23T04:48:03;99707.03;;;12.99
71630;BMP280;59479;51.902;8.212;2023-03-23T04:50:31;99717.13;;;12.99
71630;BMP280;59479;51.902;8.212;2023-03-23T04:52:58;99714.56;;;13.01
71630;BMP280;59479;51.902;8.212;2023-03-23T04:55:25;99722.19;;;12.99
71630;BMP280;59479;51.902;8.212;2023-03-23T04:57:51;99723.03;;;12.98
71630;BMP280;59479;51.902;8.212;2023-03-23T05:00:17;99718.09;;;12.95
71630;BMP280;59479;51.902;8.212;2023-03-23T05:02:45;99712.09;;;12.99
71630;BMP280;59479;51.902;8.212;2023-03-23T05:05:12;99704.84;;;12.86
71630;BMP280;59479;51.902;8.212;2023-03-23T05:07:38;99709.75;;;12.92
71630;BMP280;59479;51.902;8.212;2023-03-23T05:10:05;99708.78;;;12.97
71630;BMP280;59479;51.902;8.212;2023-03-23T05:12:31;99721.34;;;12.99
71630;BMP280;59479;51.902;8.212;2023-03-23T05:14:56;99715.34;;;13.04
71630;BMP280;59479;51.902;8.212;2023-03-23T05:17:22;99705.38;;;12.98
71630;BMP280;59479;51.902;8.212;2023-03-23T05:19:52;99705.31;;;13.01
71630;BMP280;59479;51.902;8.212;2023-03-23T05:22:17;99700.22;;;13.02
71630;BMP280;59479;51.902;8.212;2023-03-23T05:24:45;99709.47;;;13.03
71630;BMP280;59479;51.902;8.212;2023-03-23T05:27:11;99707.03;;;12.99
71630;BMP280;59479;51.902;8.212;2023-03-23T05:29:37;99695.44;;;12.92
71630;BMP280;59479;51.902;8.212;2023-03-23T05:32:06;99704.59;;;12.96
71630;BMP280;59479;51.902;8.212;2023-03-23T05:34:33;99702.94;;;12.95
71630;BMP280;59479;51.902;8.212;2023-03-23T05:36:59;99696.28;;;12.93
71630;BMP280;59479;51.902;8.212;2023-03-23T05:39:26;99705.38;;;12.98
71630;BMP280;59479;51.902;8.212;2023-03-23T05:41:51;99698.03;;;12.89
71630;BMP280;59479;51.902;8.212;2023-03-23T05:44:17;99706.28;;;12.96
71630;BMP280;59479;51.902;8.212;2023-03-23T05:46:43;99703.94;;;12.88
71630;BMP280;59479;51.902;8.212;2023-03-23T05:49:08;99707.34;;;12.87
71630;BMP280;59479;51.902;8.212;2023-03-23T05:51:34;99717.47;;;12.86
71630;BMP280;59479;51.902;8.212;2023-03-23T05:54:00;99715.63;;;12.92
71630;BMP280;59479;51.902;8.212;2023-03-23T05:56:25;99710.66;;;12.89
71630;BMP280;59479;51.902;8.212;2023-03-23T05:58:51;99720.81;;;12.86
71630;BMP280;59479;51.902;8.212;2023-03-23T06:01:16;99720.06;;;12.80
71630;BMP280;59479;51.902;8.212;2023-03-23T06:03:42;99715.69;;;12.89
71630;BMP280;59479;51.902;8.212;2023-03-23T06:06:10;99735.00;;;12.90
71630;BMP280;59479;51.902;8.212;2023-03-23T06:08:36;99734.97;;;12.92
71630;BMP280;59479;51.902;8.212;2023-03-23T06:11:02;99733.19;;;12.97
71630;BMP280;59479;51.902;8.212;2023-03-23T06:13:28;99738.41;;;12.88
71630;BMP280;59479;51.902;8.212;2023-03-23T06:15:56;99736.66;;;12.91
71630;BMP280;59479;51.902;8.212;2023-03-23T06:18:24;99730.75;;;12.92
71630;BMP280;59479;51.902;8.212;2023-03-23T06:20:51;99739.25;;;12.88
71630;BMP280;59479;51.902;8.212;2023-03-23T06:23:17;99742.47;;;12.93
71630;BMP280;59479;51.902;8.212;2023-03-23T06:25:43;99742.34;;;12.99
71630;BMP280;59479;51.902;8.212;2023-03-23T06:28:10;99737.38;;;12.96
71630;BMP280;59479;51.902;8.212;2023-03-23T06:30:38;99739.00;;;12.99
71630;BMP280;59479;51.902;8.212;2023-03-23T06:33:04;99742.47;;;12.93
71630;BMP280;59479;51.902;8.212;2023-03-23T06:35:31;99735.72;;;12.95
71630;BMP280;59479;51.902;8.212;2023-03-23T06:37:57;99734.13;;;12.91
71630;BMP280;59479;51.902;8.212;2023-03-23T06:40:27;99743.38;;;12.92
71630;BMP280;59479;51.902;8.212;2023-03-23T06:42:52;99747.00;;;12.81
71630;BMP280;59479;51.902;8.212;2023-03-23T06:45:18;99755.97;;;12.92
71630;BMP280;59479;51.902;8.212;2023-03-23T06:47:45;99756.72;;;12.96
71630;BMP280;59479;51.902;8.212;2023-03-23T06:50:10;99748.97;;;13.03
71630;BMP280;59479;51.902;8.212;2023-03-23T06:52:36;99747.34;;;13.02
71630;BMP280;59479;51.902;8.212;2023-03-23T06:55:02;99750.56;;;13.07
71630;BMP280;59479;51.902;8.212;2023-03-23T06:57:27;99748.91;;;13.06
71630;BMP280;59479;51.902;8.212;2023-03-23T06:59:52;99753.28;;;12.98
71630;BMP280;59479;51.902;8.212;2023-03-23T07:02:18;99751.72;;;12.94
71630;BMP280;59479;51.902;8.212;2023-03-23T07:04:43;99764.09;;;13.03
71630;BMP280;59479;51.902;8.212;2023-03-23T07:07:10;99765.00;;;13.02
71630;BMP280;59479;51.902;8.212;2023-03-23T07:09:36;99749.06;;;13.00
71630;BMP280;59479;51.902;8.212;2023-03-23T07:12:02;99753.94;;;13.06
71630;BMP280;59479;51.902;8.212;2023-03-23T07:14:27;99754.91;;;13.02
71630;BMP280;59479;51.902;8.212;2023-03-23T07:16:53;99765.56;;;13.13
71630;BMP280;59479;51.902;8.212;2023-03-23T07:19:19;99759.06;;;13.03
71630;BMP280;59479;51.902;8.212;2023-03-23T07:21:44;99758.97;;;13.07
71630;BMP280;59479;51.902;8.212;2023-03-23T07:24:11;99768.19;;;13.08
71630;BMP280;59479;51.902;8.212;2023-03-23T07:26:40;99760.69;;;13.05
71630;BMP280;59479;51.902;8.212;2023-03-23T07:29:05;99760.66;;;13.07
71630;BMP280;59479;51.902;8.212;2023-03-23T07:31:31;99774.88;;;13.09
71630;BMP280;59479;51.902;8.212;2023-03-23T07:33:57;99766.41;;;13.13
71630;BMP280;59479;51.902;8.212;2023-03-23T07:36:22;99767.16;;;13.17
71630;BMP280;59479;51.902;8.212;2023-03-23T07:38:47;99762.78;;;13.23
71630;BMP280;59479;51.902;8.212;2023-03-23T07:41:13;99761.06;;;13.25
71630;BMP280;59479;51.902;8.212;2023-03-23T07:43:38;99766.94;;;13.26
71630;BMP280;59479;51.902;8.212;2023-03-23T07:46:04;99778.81;;;13.21
71630;BMP280;59479;51.902;8.212;2023-03-23T07:48:30;99780.50;;;13.22
71630;BMP280;59479;51.902;8.212;2023-03-23T07:50:55;99771.97;;;13.26
71630;BMP280;59479;51.902;8.212;2023-03-23T07:53:20;99776.34;;;13.19
71630;BMP280;59479;51.902;8.212;2023-03-23T07:55:47;99786.50;;;13.16
71630;BMP280;59479;51.902;8.212;2023-03-23T07:58:12;99781.31;;;13.22
71630;BMP280;59479;51.902;8.212;2023-03-23T08:00:44;99781.31;;;13.22
71630;BMP280;59479;51.902;8.212;2023-03-23T08:03:10;99787.06;;;13.27
71630;BMP280;59479;51.902;8.212;2023-03-23T08:05:36;99775.22;;;13.31
71630;BMP280;59479;51.902;8.212;2023-03-23T08:08:01;99782.06;;;13.26
71630;BMP280;59479;51.902;8.212;2023-03-23T08:10:27;99780.03;;;13.40
71630;BMP280;59479;51.902;8.212;2023-03-23T08:12:54;99787.72;;;13.35
71630;BMP280;59479;51.902;8.212;2023-03-23T08:15:20;99774.91;;;13.43
71630;BMP280;59479;51.902;8.212;2023-03-23T08:17:47;99785.78;;;13.44
71630;BMP280;59479;51.902;8.212;2023-03-23T08:20:12;99779.13;;;13.42
71630;BMP280;59479;51.902;8.212;2023-03-23T08:22:39;99778.88;;;13.52
71630;BMP280;59479;51.902;8.212;2023-03-23T08:25:07;99780.72;;;13.46
71630;BMP280;59479;51.902;8.212;2023-03-23T08:27:33;99782.44;;;13.44
71630;BMP280;59479;51.902;8.212;2023-03-23T08:29:58;99790.69;;;13.50
71630;BMP280;59479;51.902;8.212;2023-03-23T08:32:24;99800.75;;;13.52
71630;BMP280;59479;51.902;8.212;2023-03-23T08:34:49;99783.63;;;13.63
71630;BMP280;59479;51.902;8.212;2023-03-23T08:37:15;99779.44;;;13.63
71630;BMP280;59479;51.902;8.212;2023-03-23T08:39:42;99791.94;;;13.68
71630;BMP280;59479;51.902;8.212;2023-03-23T08:42:08;99791.25;;;13.61
71630;BMP280;59479;51.902;8.212;2023-03-23T08:44:34;99793.94;;;13.55
71630;BMP280;59479;51.902;8.212;2023-03-23T08:47:01;99789.38;;;13.69
71630;BMP280;59479;51.902;8.212;2023-03-23T08:49:29;99792.09;;;13.62
71630;BMP280;59479;51.902;8.212;2023-03-23T08:51:56;99793.84;;;13.60
71630;BMP280;59479;51.902;8.212;2023-03-23T08:54:21;99805.44;;;13.67
71630;BMP280;59479;51.902;8.212;2023-03-23T08:56:46;99795.44;;;13.62
71630;BMP280;59479;51.902;8.212;2023-03-23T08:59:12;99805.84;;;13.50
71630;BMP280;59479;51.902;8.212;2023-03-23T09:01:37;99809.81;;;13.60
71630;BMP280;59479;51.902;8.212;2023-03-23T09:04:03;99804.69;;;13.63
71630;BMP280;59479;51.902;8.212;2023-03-23T09:06:29;99801.84;;;13.75
71630;BMP280;59479;51.902;8.212;2023-03-23T09:08:55;99809.31;;;13.78
71630;BMP280;59479;51.902;8.212;2023-03-23T09:11:21;99816.72;;;13.85
71630;BMP280;59479;51.902;8.212;2023-03-23T09:13:46;99822.66;;;13.83
71630;BMP280;59479;51.902;8.212;2023-03-23T09:16:11;99818.50;;;13.82
71630;BMP280;59479;51.902;8.212;2023-03-23T09:18:37;99811.75;;;13.83
71630;BMP280;59479;51.902;8.212;2023-03-23T09:21:03;99825.81;;;13.91
71630;BMP280;59479;51.902;8.212;2023-03-23T09:23:29;99823.34;;;13.89
71630;BMP280;59479;51.902;8.212;2023-03-23T09:25:55;99824.19;;;13.90
71630;BMP280;59479;51.902;8.212;2023-03-23T09:28:20;99818.03;;;14.00
71630;BMP280;59479;51.902;8.212;2023-03-23T09:30:46;99818.03;;;14.00
71630;BMP280;59479;51.902;8.212;2023-03-23T09:33:13;99824.75;;;13.99
71630;BMP280;59479;51.902;8.212;2023-03-23T09:35:39;99835.94;;;13.91
71630;BMP280;59479;51.902;8.212;2023-03-23T09:38:07;99845.16;;;13.93
71630;BMP280;59479;51.902;8.212;2023-03-23T09:40:45;99838.44;;;13.91
71630;BMP280;59479;51.902;8.212;2023-03-23T09:43:31;99840.75;;;14.00
71630;BMP280;59479;51.902;8.212;2023-03-23T09:48:54;99840.47;;;14.12
71630;BMP280;59479;51.902;8.212;2023-03-23T09:51:43;99837.72;;;14.19
71630;BMP280;59479;51.902;8.212;2023-03-23T09:54:24;99847.75;;;14.22
71630;BMP280;59479;51.902;8.212;2023-03-23T09:56:51;99841.31;;;14.11
71630;BMP280;59479;51.902;8.212;2023-03-23T09:59:39;99849.59;;;14.17
71630;BMP280;59479;51.902;8.212;2023-03-23T10:05:31;99843.53;;;14.23
71630;BMP280;59479;51.902;8.212;2023-03-23T10:07:58;99850.41;;;14.18
71630;BMP280;59479;51.902;8.212;2023-03-23T10:10:31;99851.88;;;14.25
71630;BMP280;59479;51.902;8.212;2023-03-23T10:13:03;99849.19;;;14.32
71630;BMP280;59479;51.902;8.212;2023-03-23T10:15:33;99853.06;;;14.43
71630;BMP280;59479;51.902;8.212;2023-03-23T10:18:10;99863.47;;;14.63
71630;BMP280;59479;51.902;8.212;2023-03-23T10:20:43;99857.78;;;14.55
71630;BMP280;59479;51.902;8.212;2023-03-23T10:26:02;99865.44;;;14.52
71630;BMP280;59479;51.902;8.212;2023-03-23T10:28:41;99856.97;;;14.55
71630;BMP280;59479;51.902;8.212;2023-03-23T10:31:21;99861.03;;;14.60
71630;BMP280;59479;51.902;8.212;2023-03-23T10:33:50;99862.13;;;14.50
71630;BMP280;59479;51.902;8.212;2023-03-23T10:36:20;99864.56;;;14.55
71630;BMP280;59479;51.902;8.212;2023-03-23T10:41:36;99876.00;;;14.66
71630;BMP280;59479;51.902;8.212;2023-03-23T10:44:10;99898.75;;;14.66
71630;BMP280;59479;51.902;8.212;2023-03-23T10:46:58;99913.81;;;14.40
71630;BMP280;59479;51.902;8.212;2023-03-23T10:49:26;99924.25;;;14.28
71630;BMP280;59479;51.902;8.212;2023-03-23T10:52:02;99939.94;;;14.08
71630;BMP280;59479;51.902;8.212;2023-03-23T10:54:37;99927.88;;;13.84
71630;BMP280;59479;51.902;8.212;2023-03-23T10:57:22;99922.13;;;13.78
71630;BMP280;59479;51.902;8.212;2023-03-23T10:59:48;99929.13;;;13.68
71630;BMP280;59479;51.902;8.212;2023-03-23T11:02:17;99931.72;;;13.65
71630;BMP280;59479;51.902;8.212;2023-03-23T11:04:54;99928.75;;;13.48
71630;BMP280;59479;51.902;8.212;2023-03-23T11:07:26;99936.31;;;13.48
71630;BMP280;59479;51.902;8.212;2023-03-23T11:10:03;99945.38;;;13.57
71630;BMP280;59479;51.902;8.212;2023-03-23T11:12:33;99936.03;;;13.60
71630;BMP280;59479;51.902;8.212;2023-03-23T11:15:14;99931.31;;;13.45
71630;BMP280;59479;51.902;8.212;2023-03-23T11:17:41;99943.84;;;13.50
71630;BMP280;59479;51.902;8.212;2023-03-23T11:20:11;99942.13;;;13.52
71630;BMP280;59479;51.902;8.212;2023-03-23T11:22:37;99934.88;;;13.37
71630;BMP280;59479;51.902;8.212;2023-03-23T11:25:05;99956.91;;;13.31
71630;BMP280;59479;51.902;8.212;2023-03-23T11:27:32;99965.53;;;13.21
71630;BMP280;59479;51.902;8.212;2023-03-23T11:30:09;99963.78;;;13.23
71630;BMP280;59479;51.902;8.212;2023-03-23T11:32:35;99964.56;;;13.26
71630;BMP280;59479;51.902;8.212;2023-03-23T11:35:11;99977.28;;;13.22
71630;BMP280;59479;51.902;8.212;2023-03-23T11:37:42;99981.50;;;13.20
71630;BMP280;59479;51.902;8.212;2023-03-23T11:45:21;99975.72;;;13.15
71630;BMP280;59479;51.902;8.212;2023-03-23T11:47:56;99978.34;;;13.12
71630;BMP280;59479;51.902;8.212;2023-03-23T11:50:32;99981.50;;;13.20
71630;BMP280;59479;51.902;8.212;2023-03-23T11:55:27;99973.25;;;13.13
71630;BMP280;59479;51.902;8.212;2023-03-23T11:57:55;99975.72;;;13.15
71630;BMP280;59479;51.902;8.212;2023-03-23T12:00:25;99969.03;;;13.14
71630;BMP280;59479;51.902;8.212;2023-03-23T12:03:26;99975.63;;;13.21
71630;BMP280;59479;51.902;8.212;2023-03-23T12:06:19;99958.06;;;13.15
71630;BMP280;59479;51.902;8.212;2023-03-23T12:09:02;99962.16;;;13.22
71630;BMP280;59479;51.902;8.212;2023-03-23T12:11:45;99964.72;;;13.19
71630;BMP280;59479;51.902;8.212;2023-03-23T12:16:57;99976.38;;;13.24
71630;BMP280;59479;51.902;8.212;2023-03-23T12:22:20;99968.13;;;13.16
71630;BMP280;59479;51.902;8.212;2023-03-23T12:30:21;99967.44;;;13.10
71630;BMP280;59479;51.902;8.212;2023-03-23T12:33:07;99970.56;;;13.21
71630;BMP280;59479;51.902;8.212;2023-03-23T12:35:57;99962.41;;;13.10
71630;BMP280;59479;51.902;8.212;2023-03-23T12:41:14;99985.97;;;13.09
71630;BMP280;59479;51.902;8.212;2023-03-23T12:43:52;99981.00;;;13.04
71630;BMP280;59479;51.902;8.212;2023-03-23T12:49:23;99963.22;;;13.10
71630;BMP280;59479;51.902;8.212;2023-03-23T12:57:03;99981.78;;;13.06
71630;BMP280;59479;51.902;8.212;2023-03-23T13:02:47;99964.31;;;12.98
71630;BMP280;59479;51.902;8.212;2023-03-23T13:07:47;99968.38;;;13.04
71630;BMP280;59479;51.902;8.212;2023-03-23T13:10:28;99957.53;;;13.01
71630;BMP280;59479;51.902;8.212;2023-03-23T13:12:55;99972.59;;;13.04
71630;BMP280;59479;51.902;8.212;2023-03-23T13:18:18;99954.72;;;13.14
71630;BMP280;59479;51.902;8.212;2023-03-23T13:20:54;99950.50;;;13.15
71630;BMP280;59479;51.902;8.212;2023-03-23T13:23:40;99957.22;;;13.16
71630;BMP280;59479;51.902;8.212;2023-03-23T13:26:09;99953.97;;;13.11
71630;BMP280;59479;51.902;8.212;2023-03-23T13:28:58;99956.47;;;13.12
71630;BMP280;59479;51.902;8.212;2023-03-23T13:31:30;99967.19;;;13.22
71630;BMP280;59479;51.902;8.212;2023-03-23T13:39:30;99969.13;;;13.09
71630;BMP280;59479;51.902;8.212;2023-03-23T13:44:38;99958.16;;;13.12
71630;BMP280;59479;51.902;8.212;2023-03-23T13:47:08;99950.00;;;13.00
71630;BMP280;59479;51.902;8.212;2023-03-23T13:49:46;99928.00;;;13.06
71630;BMP280;59479;51.902;8.212;2023-03-23T13:52:22;99932.97;;;13.09
71630;BMP280;59479;51.902;8.212;2023-03-23T13:54:48;99925.38;;;13.12
71630;BMP280;59479;51.902;8.212;2023-03-23T13:57:24;99923.34;;;13.27
71630;BMP280;59479;51.902;8.212;2023-03-23T13:59:56;99925.78;;;13.32
71630;BMP280;59479;51.902;8.212;2023-03-23T14:02:34;99940.19;;;13.27
71630;BMP280;59479;51.902;8.212;2023-03-23T14:05:32;99933.41;;;13.29
71630;BMP280;59479;51.902;8.212;2023-03-23T14:11:12;99935.78;;;13.35
71630;BMP280;59479;51.902;8.212;2023-03-23T14:16:24;99934.63;;;13.49
71630;BMP280;59479;51.902;8.212;2023-03-23T14:18:59;99946.13;;;13.60
71630;BMP280;59479;51.902;8.212;2023-03-23T14:23:53;99962.06;;;13.62
71630;BMP280;59479;51.902;8.212;2023-03-23T14:26:21;99962.81;;;13.67
71630;BMP280;59479;51.902;8.212;2023-03-23T14:28:50;99962.75;;;13.70
71630;BMP280;59479;51.902;8.212;2023-03-23T14:31:23;99948.47;;;13.68
71630;BMP280;59479;51.902;8.212;2023-03-23T14:33:50;99945.03;;;13.72
71630;BMP280;59479;51.902;8.212;2023-03-23T14:36:21;99945.16;;;13.66
71630;BMP280;59479;51.902;8.212;2023-03-23T14:38:47;99935.84;;;13.68
71630;BMP280;59479;51.902;8.212;2023-03-23T14:41:13;99938.22;;;13.75
71630;BMP280;59479;51.902;8.212;2023-03-23T14:43:39;99932.44;;;13.70
71630;BMP280;59479;51.902;8.212;2023-03-23T14:46:09;99935.81;;;13.69
71630;BMP280;59479;51.902;8.212;2023-03-23T14:48:36;99933.91;;;13.79
71630;BMP280;59479;51.902;8.212;2023-03-23T14:51:04;99918.69;;;13.82
71630;BMP280;59479;51.902;8.212;2023-03-23T14:53:36;99926.22;;;13.83
71630;BMP280;59479;51.902;8.212;2023-03-23T14:56:09;99915.88;;;13.93
71630;BMP280;59479;51.902;8.212;2023-03-23T14:58:35;99920.81;;;13.96
71630;BMP280;59479;51.902;8.212;2023-03-23T15:01:09;99942.66;;;13.99
71630;BMP280;59479;51.902;8.212;2023-03-23T15:03:41;99953.56;;;14.01
71630;BMP280;59479;51.902;8.212;2023-03-23T15:06:14;99939.75;;;14.15
71630;BMP280;59479;51.902;8.212;2023-03-23T15:08:44;99939.50;;;14.26
71630;BMP280;59479;51.902;8.212;2023-03-23T15:13:45;99937.91;;;14.22
71630;BMP280;59479;51.902;8.212;2023-03-23T15:16:18;99930.41;;;14.19
71630;BMP280;59479;51.902;8.212;2023-03-23T15:18:49;99938.75;;;14.22
71630;BMP280;59479;51.902;8.212;2023-03-23T15:23:51;99948.88;;;14.21
71630;BMP280;59479;51.902;8.212;2023-03-23T15:26:26;99944.16;;;14.40
71630;BMP280;59479;51.902;8.212;2023-03-23T15:31:34;99933.78;;;14.49
71630;BMP280;59479;51.902;8.212;2023-03-23T15:34:04;99915.38;;;14.44
71630;BMP280;59479;51.902;8.212;2023-03-23T15:36:34;99915.47;;;14.41
71630;BMP280;59479;51.902;8.212;2023-03-23T15:39:00;99908.91;;;14.34
71630;BMP280;59479;51.902;8.212;2023-03-23T15:41:28;99886.84;;;14.41
71630;BMP280;59479;51.902;8.212;2023-03-23T15:43:56;99886.84;;;14.41
71630;BMP280;59479;51.902;8.212;2023-03-23T15:46:27;99887.50;;;14.47